createdAt,value
2022-11-26T00:00:16.912Z,6.06
2022-11-26T00:01:16.364Z,6.03
2022-11-26T00:02:17.056Z,6.03
2022-11-26T00:03:16.870Z,6.03
2022-11-26T00:04:16.450Z,6.10
2022-11-26T00:05:16.943Z,6.12
2022-11-26T00:06:16.438Z,6.09
2022-11-26T00:07:16.985Z,6.05
2022-11-26T00:08:16.540Z,6.06
2022-11-26T00:09:17.018Z,6.05
2022-11-26T00:10:16.587Z,6.05
2022-11-26T00:11:17.087Z,6.06
2022-11-26T00:12:17.117Z,6.03
2022-11-26T00:13:16.584Z,5.99
2022-11-26T00:14:17.079Z,5.98
2022-11-26T00:15:16.551Z,5.99
2022-11-26T00:16:17.097Z,6.02
2022-11-26T00:17:16.744Z,6.00
2022-11-26T00:18:17.222Z,6.03
2022-11-26T00:19:16.746Z,6.00
2022-11-26T00:20:17.227Z,6.00
2022-11-26T00:21:16.709Z,5.96
2022-11-26T00:22:16.768Z,5.93
2022-11-26T00:23:17.244Z,5.96
2022-11-26T00:24:16.716Z,5.96
2022-11-26T00:25:17.221Z,5.95
2022-11-26T00:26:16.712Z,5.91
2022-11-26T00:27:17.168Z,5.92
2022-11-26T00:28:16.672Z,5.91
2022-11-26T00:29:17.169Z,5.89
2022-11-26T00:30:16.635Z,5.91
2022-11-26T00:31:17.150Z,5.88
2022-11-26T00:32:16.714Z,5.89
2022-11-26T00:33:17.202Z,5.89
2022-11-26T00:34:16.692Z,5.88
2022-11-26T00:35:17.179Z,5.84
2022-11-26T00:36:16.656Z,5.85
2022-11-26T00:37:17.152Z,5.89
2022-11-26T00:38:16.634Z,5.85
2022-11-26T00:39:17.244Z,5.88
2022-11-26T00:40:16.744Z,5.84
2022-11-26T00:41:17.253Z,5.84
2022-11-26T00:42:17.204Z,5.82
2022-11-26T00:43:16.676Z,5.77
2022-11-26T00:44:17.196Z,5.74
2022-11-26T00:45:16.669Z,5.78
2022-11-26T00:46:17.166Z,5.82
2022-11-26T00:47:16.763Z,5.75
2022-11-26T00:48:17.239Z,5.77
2022-11-26T00:49:16.707Z,5.72
2022-11-26T00:50:17.195Z,5.77
2022-11-26T00:51:16.678Z,5.75
2022-11-26T00:52:16.409Z,5.75
2022-11-26T00:53:16.954Z,5.84
2022-11-26T00:54:16.447Z,5.79
2022-11-26T00:55:16.925Z,5.79
2022-11-26T00:56:16.373Z,5.77
2022-11-26T00:57:16.845Z,5.77
2022-11-26T00:58:16.320Z,5.77
2022-11-26T00:59:16.774Z,5.77
2022-11-26T01:00:17.248Z,5.78
2022-11-26T01:01:16.752Z,5.77
2022-11-26T01:02:16.451Z,5.75
2022-11-26T01:03:17.096Z,5.75
2022-11-26T01:04:16.585Z,5.72
2022-11-26T01:05:17.093Z,5.67
2022-11-26T01:06:16.576Z,5.67
2022-11-26T01:07:17.120Z,5.65
2022-11-26T01:08:16.722Z,5.70
2022-11-26T01:09:17.220Z,5.78
2022-11-26T01:10:16.695Z,5.78
2022-11-26T01:11:17.180Z,5.77
2022-11-26T01:12:16.833Z,5.78
2022-11-26T01:13:16.317Z,5.67
2022-11-26T01:14:16.817Z,5.70
2022-11-26T01:15:17.297Z,5.65
2022-11-26T01:16:16.814Z,5.65
2022-11-26T01:17:16.410Z,5.68
2022-11-26T01:18:16.929Z,5.68
2022-11-26T01:19:16.430Z,5.64
2022-11-26T01:20:17.595Z,5.62
2022-11-26T01:21:16.401Z,5.65
2022-11-26T01:22:17.041Z,5.68
2022-11-26T01:23:16.572Z,5.64
2022-11-26T01:24:17.021Z,5.72
2022-11-26T01:25:16.497Z,5.72
2022-11-26T01:26:17.020Z,5.71
2022-11-26T01:27:16.496Z,5.75
2022-11-26T01:28:17.024Z,5.81
2022-11-26T01:29:16.528Z,5.81
2022-11-26T01:30:16.993Z,5.79
2022-11-26T01:31:16.540Z,5.81
2022-11-26T01:32:17.254Z,5.79
2022-11-26T01:33:16.747Z,5.75
2022-11-26T01:34:17.230Z,5.77
2022-11-26T01:35:16.713Z,5.82
2022-11-26T01:36:17.196Z,5.82
2022-11-26T01:37:16.669Z,5.81
2022-11-26T01:38:17.135Z,5.79
2022-11-26T01:39:16.633Z,5.84
2022-11-26T01:40:17.125Z,5.84
2022-11-26T01:41:16.630Z,5.79
2022-11-26T01:42:16.485Z,5.81
2022-11-26T01:43:16.948Z,5.82
2022-11-26T01:44:16.426Z,5.79
2022-11-26T01:45:16.918Z,5.81
2022-11-26T01:46:16.496Z,5.77
2022-11-26T01:47:17.052Z,5.77
2022-11-26T01:48:16.537Z,5.77
2022-11-26T01:49:17.023Z,5.81
2022-11-26T01:50:16.495Z,5.79
2022-11-26T01:51:16.972Z,5.77
2022-11-26T01:52:16.454Z,5.52
2022-11-26T01:53:17.034Z,5.43
2022-11-26T01:54:16.498Z,5.50
2022-11-26T01:55:16.972Z,5.52
2022-11-26T01:56:16.444Z,5.51
2022-11-26T01:57:16.969Z,5.51
2022-11-26T01:58:16.445Z,5.45
2022-11-26T01:59:16.965Z,5.44
2022-11-26T02:00:16.483Z,5.44
2022-11-26T02:01:16.975Z,5.44
2022-11-26T02:02:16.605Z,5.41
2022-11-26T02:03:17.198Z,5.40
2022-11-26T02:04:16.705Z,5.48
2022-11-26T02:05:17.217Z,5.50
2022-11-26T02:06:16.681Z,5.52
2022-11-26T02:07:17.158Z,5.58
2022-11-26T02:08:16.717Z,5.61
2022-11-26T02:09:17.203Z,5.64
2022-11-26T02:10:16.674Z,5.60
2022-11-26T02:11:17.163Z,5.62
2022-11-26T02:12:16.345Z,5.67
2022-11-26T02:13:16.841Z,5.71
2022-11-26T02:14:16.323Z,5.75
2022-11-26T02:15:16.805Z,5.75
2022-11-26T02:16:17.323Z,5.77
2022-11-26T02:17:16.904Z,5.74
2022-11-26T02:18:16.378Z,5.74
2022-11-26T02:19:16.856Z,5.78
2022-11-26T02:20:16.336Z,5.75
2022-11-26T02:21:16.812Z,5.74
2022-11-26T02:22:16.855Z,5.78
2022-11-26T02:23:16.347Z,5.78
2022-11-26T02:24:16.840Z,5.75
2022-11-26T02:25:16.295Z,5.78
2022-11-26T02:26:16.788Z,5.75
2022-11-26T02:27:17.308Z,5.75
2022-11-26T02:28:16.803Z,5.71
2022-11-26T02:29:17.283Z,5.71
2022-11-26T02:30:16.771Z,5.68
2022-11-26T02:31:17.393Z,5.70
2022-11-26T02:32:16.505Z,5.71
2022-11-26T02:33:17.016Z,5.70
2022-11-26T02:34:16.471Z,5.71
2022-11-26T02:35:16.955Z,5.71
2022-11-26T02:36:16.421Z,5.74
2022-11-26T02:37:16.884Z,5.72
2022-11-26T02:38:16.354Z,5.72
2022-11-26T02:39:16.840Z,5.72
2022-11-26T02:40:16.337Z,5.75
2022-11-26T02:41:16.791Z,5.71
2022-11-26T02:42:16.761Z,5.72
2022-11-26T02:43:17.276Z,5.78
2022-11-26T02:44:16.743Z,5.77
2022-11-26T02:45:17.229Z,5.77
2022-11-26T02:46:16.840Z,5.74
2022-11-26T02:47:16.478Z,5.77
2022-11-26T02:48:16.951Z,5.81
2022-11-26T02:49:16.457Z,5.84
2022-11-26T02:50:16.960Z,5.81
2022-11-26T02:51:16.447Z,5.86
2022-11-26T02:52:17.213Z,5.86
2022-11-26T02:53:16.674Z,5.84
2022-11-26T02:54:17.184Z,5.85
2022-11-26T02:55:16.662Z,5.85
2022-11-26T02:56:17.182Z,5.85
2022-11-26T02:57:16.687Z,5.86
2022-11-26T02:58:17.184Z,5.84
2022-11-26T02:59:16.728Z,5.84
2022-11-26T03:00:17.227Z,5.84
2022-11-26T03:01:16.742Z,5.82
2022-11-26T03:02:16.331Z,5.84
2022-11-26T03:03:16.815Z,5.82
2022-11-26T03:04:17.294Z,5.81
2022-11-26T03:05:16.842Z,5.77
2022-11-26T03:06:16.305Z,5.77
2022-11-26T03:07:16.840Z,5.78
2022-11-26T03:08:16.350Z,5.82
2022-11-26T03:09:16.859Z,5.84
2022-11-26T03:10:16.348Z,5.81
2022-11-26T03:11:16.875Z,5.75
2022-11-26T03:12:16.552Z,5.74
2022-11-26T03:13:17.232Z,5.72
2022-11-26T03:14:16.721Z,5.72
2022-11-26T03:15:17.227Z,5.72
2022-11-26T03:16:16.781Z,5.75
2022-11-26T03:17:16.362Z,5.75
2022-11-26T03:18:16.841Z,5.85
2022-11-26T03:19:16.330Z,5.82
2022-11-26T03:20:16.388Z,5.84
2022-11-26T03:21:16.851Z,5.81
2022-11-26T03:22:16.666Z,5.81
2022-11-26T03:23:17.161Z,5.79
2022-11-26T03:24:16.672Z,5.77
2022-11-26T03:25:17.156Z,5.74
2022-11-26T03:26:16.651Z,5.75
2022-11-26T03:27:17.115Z,5.75
2022-11-26T03:28:16.615Z,5.77
2022-11-26T03:29:17.090Z,5.77
2022-11-26T03:30:16.566Z,5.68
2022-11-26T03:31:17.113Z,5.68
2022-11-26T03:32:16.870Z,5.64
2022-11-26T03:33:16.341Z,5.60
2022-11-26T03:34:16.809Z,5.60
2022-11-26T03:35:17.297Z,5.60
2022-11-26T03:36:16.773Z,5.55
2022-11-26T03:37:17.261Z,5.55
2022-11-26T03:38:16.764Z,5.50
2022-11-26T03:39:17.267Z,5.51
2022-11-26T03:40:16.770Z,5.45
2022-11-26T03:41:17.344Z,5.48
2022-11-26T03:42:17.132Z,5.67
2022-11-26T03:43:16.608Z,5.60
2022-11-26T03:44:17.090Z,5.61
2022-11-26T03:45:16.658Z,5.61
2022-11-26T03:46:17.206Z,5.68
2022-11-26T03:47:16.775Z,5.69
2022-11-26T03:48:17.263Z,5.63
2022-11-26T03:49:16.780Z,5.63
2022-11-26T03:50:17.246Z,5.61
2022-11-26T03:51:16.728Z,5.65
2022-11-26T03:52:16.352Z,5.65
2022-11-26T03:53:16.833Z,5.63
2022-11-26T03:54:16.331Z,5.66
2022-11-26T03:55:16.828Z,5.70
2022-11-26T03:56:16.350Z,5.73
2022-11-26T03:57:16.851Z,5.73
2022-11-26T03:58:16.343Z,5.75
2022-11-26T03:59:16.844Z,5.77
2022-11-26T04:00:16.369Z,5.76
2022-11-26T04:01:16.886Z,5.68
2022-11-26T04:02:17.205Z,5.75
2022-11-26T04:03:16.731Z,5.77
2022-11-26T04:04:16.358Z,5.79
2022-11-26T04:05:16.840Z,5.82
2022-11-26T04:06:16.330Z,5.79
2022-11-26T04:07:16.909Z,5.81
2022-11-26T04:08:16.535Z,5.82
2022-11-26T04:09:17.049Z,5.78
2022-11-26T04:10:16.569Z,5.75
2022-11-26T04:11:17.056Z,5.72
2022-11-26T04:12:16.879Z,5.72
2022-11-26T04:13:16.336Z,5.74
2022-11-26T04:14:16.828Z,5.71
2022-11-26T04:15:17.298Z,5.65
2022-11-26T04:16:16.826Z,5.72
2022-11-26T04:17:16.359Z,5.72
2022-11-26T04:18:16.845Z,5.77
2022-11-26T04:19:16.318Z,5.77
2022-11-26T04:20:16.794Z,5.77
2022-11-26T04:21:17.321Z,5.78
2022-11-26T04:22:16.608Z,5.79
2022-11-26T04:23:17.113Z,5.78
2022-11-26T04:24:16.595Z,5.78
2022-11-26T04:25:17.087Z,5.75
2022-11-26T04:26:16.562Z,5.72
2022-11-26T04:27:17.047Z,5.70
2022-11-26T04:28:16.524Z,5.72
2022-11-26T04:29:17.004Z,5.74
2022-11-26T04:30:16.496Z,5.72
2022-11-26T04:31:17.026Z,5.75
2022-11-26T04:32:16.529Z,5.79
2022-11-26T04:33:17.003Z,5.79
2022-11-26T04:34:16.525Z,5.79
2022-11-26T04:35:17.006Z,5.78
2022-11-26T04:36:16.496Z,5.79
2022-11-26T04:37:16.979Z,5.81
2022-11-26T04:38:16.889Z,5.81
2022-11-26T04:39:16.521Z,5.84
2022-11-26T04:40:16.981Z,5.82
2022-11-26T04:41:16.471Z,5.81
2022-11-26T04:42:16.688Z,5.89
2022-11-26T04:43:17.192Z,5.86
2022-11-26T04:44:16.659Z,5.92
2022-11-26T04:45:17.122Z,5.92
2022-11-26T04:46:16.618Z,5.92
2022-11-26T04:47:16.484Z,5.91
2022-11-26T04:48:16.969Z,5.88
2022-11-26T04:49:16.482Z,5.89
2022-11-26T04:50:16.996Z,5.93
2022-11-26T04:51:16.490Z,6.00
2022-11-26T04:52:16.663Z,5.99
2022-11-26T04:53:17.169Z,5.96
2022-11-26T04:54:16.681Z,6.03
2022-11-26T04:55:17.140Z,6.05
2022-11-26T04:56:16.620Z,6.05
2022-11-26T04:57:17.080Z,6.05
2022-11-26T04:58:16.555Z,6.05
2022-11-26T04:59:17.017Z,5.99
2022-11-26T05:00:16.525Z,6.03
2022-11-26T05:01:17.014Z,6.06
2022-11-26T05:02:17.180Z,6.08
2022-11-26T05:03:16.712Z,6.08
2022-11-26T05:04:17.185Z,6.08
2022-11-26T05:05:16.712Z,6.09
2022-11-26T05:06:17.235Z,6.05
2022-11-26T05:07:16.764Z,6.08
2022-11-26T05:08:16.327Z,6.06
2022-11-26T05:09:16.834Z,6.06
2022-11-26T05:10:16.302Z,6.06
2022-11-26T05:11:16.794Z,6.12
2022-11-26T05:12:16.607Z,6.12
2022-11-26T05:13:17.069Z,6.12
2022-11-26T05:14:16.521Z,6.10
2022-11-26T05:15:16.993Z,6.13
2022-11-26T05:16:16.630Z,6.13
2022-11-26T05:17:17.218Z,6.13
2022-11-26T05:18:16.734Z,6.13
2022-11-26T05:19:17.220Z,6.10
2022-11-26T05:20:16.725Z,6.12
2022-11-26T05:21:17.254Z,6.12
2022-11-26T05:22:17.217Z,6.10
2022-11-26T05:23:16.668Z,6.09
2022-11-26T05:24:17.168Z,6.08
2022-11-26T05:25:16.635Z,6.10
2022-11-26T05:26:17.101Z,6.10
2022-11-26T05:27:16.576Z,6.13
2022-11-26T05:28:17.080Z,6.14
2022-11-26T05:29:16.574Z,6.14
2022-11-26T05:30:17.076Z,6.09
2022-11-26T05:31:16.588Z,6.09
2022-11-26T05:32:16.801Z,6.08
2022-11-26T05:33:17.286Z,6.08
2022-11-26T05:34:16.782Z,6.09
2022-11-26T05:35:17.271Z,6.08
2022-11-26T05:36:16.747Z,6.09
2022-11-26T05:37:17.226Z,6.12
2022-11-26T05:38:16.737Z,6.12
2022-11-26T05:39:17.205Z,6.12
2022-11-26T05:40:16.688Z,6.12
2022-11-26T05:41:17.190Z,6.08
2022-11-26T05:42:16.455Z,6.10
2022-11-26T05:43:16.997Z,6.06
2022-11-26T05:44:16.502Z,6.05
2022-11-26T05:45:17.021Z,6.02
2022-11-26T05:46:16.561Z,6.02
2022-11-26T05:47:17.091Z,6.02
2022-11-26T05:48:16.574Z,6.05
2022-11-26T05:49:17.076Z,6.06
2022-11-26T05:50:16.579Z,6.05
2022-11-26T05:51:17.093Z,6.09
2022-11-26T05:52:16.591Z,6.09
2022-11-26T05:53:17.071Z,6.09
2022-11-26T05:54:16.566Z,6.03
2022-11-26T05:55:17.069Z,6.00
2022-11-26T05:56:16.571Z,5.99
2022-11-26T05:57:17.042Z,5.99
2022-11-26T05:58:16.509Z,5.99
2022-11-26T05:59:16.973Z,5.96
2022-11-26T06:00:16.454Z,5.99
2022-11-26T06:01:16.961Z,6.03
2022-11-26T06:02:17.238Z,6.02
2022-11-26T06:03:19.959Z,5.99
2022-11-26T06:04:17.228Z,6.05
2022-11-26T06:05:16.751Z,6.08
2022-11-26T06:06:17.253Z,6.09
2022-11-26T06:07:16.759Z,6.08
2022-11-26T06:08:16.347Z,6.05
2022-11-26T06:09:16.837Z,6.06
2022-11-26T06:10:17.294Z,6.03
2022-11-26T06:11:16.786Z,6.06
2022-11-26T06:12:16.535Z,6.08
2022-11-26T06:13:17.048Z,6.05
2022-11-26T06:14:16.542Z,6.08
2022-11-26T06:15:17.041Z,6.08
2022-11-26T06:16:16.571Z,6.06
2022-11-26T06:17:17.176Z,6.08
2022-11-26T06:18:16.677Z,6.08
2022-11-26T06:19:17.158Z,6.09
2022-11-26T06:20:16.628Z,6.13
2022-11-26T06:21:17.114Z,6.13
2022-11-26T06:22:16.911Z,6.14
2022-11-26T06:23:16.435Z,6.14
2022-11-26T06:24:16.942Z,6.13
2022-11-26T06:25:16.443Z,6.12
2022-11-26T06:26:16.918Z,6.09
2022-11-26T06:27:16.390Z,6.10
2022-11-26T06:28:16.870Z,6.08
2022-11-26T06:29:16.352Z,6.06
2022-11-26T06:30:16.837Z,6.06
2022-11-26T06:31:16.315Z,6.06
2022-11-26T06:32:16.624Z,6.12
2022-11-26T06:33:17.121Z,6.12
2022-11-26T06:34:16.623Z,6.10
2022-11-26T06:35:17.096Z,6.08
2022-11-26T06:36:16.552Z,6.02
2022-11-26T06:37:16.998Z,6.03
2022-11-26T06:38:16.454Z,6.02
2022-11-26T06:39:16.942Z,5.99
2022-11-26T06:40:16.443Z,5.96
2022-11-26T06:41:16.956Z,5.99
2022-11-26T06:42:16.685Z,6.00
2022-11-26T06:43:17.194Z,5.98
2022-11-26T06:44:16.703Z,5.98
2022-11-26T06:45:17.204Z,5.98
2022-11-26T06:46:16.772Z,5.96
2022-11-26T06:47:16.413Z,5.99
2022-11-26T06:48:16.870Z,5.96
2022-11-26T06:49:16.342Z,5.98
2022-11-26T06:50:16.816Z,6.00
2022-11-26T06:51:17.295Z,6.00
2022-11-26T06:52:16.521Z,5.95
2022-11-26T06:53:17.021Z,5.93
2022-11-26T06:54:16.511Z,5.98
2022-11-26T06:55:17.005Z,6.02
2022-11-26T06:56:18.698Z,6.02
2022-11-26T06:57:16.905Z,6.05
2022-11-26T06:58:16.425Z,6.02
2022-11-26T06:59:16.919Z,6.00
2022-11-26T07:00:16.381Z,6.03
2022-11-26T07:01:16.910Z,6.02
2022-11-26T07:02:17.328Z,6.05
2022-11-26T07:03:21.038Z,6.06
2022-11-26T07:04:16.852Z,6.08
2022-11-26T07:05:16.340Z,6.12
2022-11-26T07:06:16.810Z,6.10
2022-11-26T07:07:17.336Z,6.10
2022-11-26T07:08:16.910Z,6.09
2022-11-26T07:09:16.440Z,6.09
2022-11-26T07:10:16.936Z,6.08
2022-11-26T07:11:16.417Z,6.09
2022-11-26T07:12:16.422Z,6.10
2022-11-26T07:13:16.896Z,6.12
2022-11-26T07:14:16.493Z,6.08
2022-11-26T07:15:16.975Z,6.09
2022-11-26T07:16:16.498Z,6.05
2022-11-26T07:17:17.059Z,6.05
2022-11-26T07:18:16.539Z,6.03
2022-11-26T07:19:17.000Z,6.02
2022-11-26T07:20:16.496Z,6.02
2022-11-26T07:21:17.029Z,6.02
2022-11-26T07:22:16.939Z,5.98
2022-11-26T07:23:16.423Z,5.95
2022-11-26T07:24:16.935Z,5.95
2022-11-26T07:25:16.428Z,5.93
2022-11-26T07:26:16.919Z,5.93
2022-11-26T07:27:16.449Z,5.96
2022-11-26T07:28:16.922Z,5.95
2022-11-26T07:29:16.384Z,5.92
2022-11-26T07:30:16.921Z,5.98
2022-11-26T07:31:17.278Z,5.98
2022-11-26T07:32:16.422Z,5.96
2022-11-26T07:33:16.905Z,5.99
2022-11-26T07:34:16.366Z,5.99
2022-11-26T07:35:16.864Z,6.03
2022-11-26T07:36:16.513Z,6.05
2022-11-26T07:37:16.993Z,6.05
2022-11-26T07:38:16.520Z,6.06
2022-11-26T07:39:17.005Z,6.05
2022-11-26T07:40:16.498Z,6.06
2022-11-26T07:41:17.010Z,6.06
2022-11-26T07:42:16.962Z,6.08
2022-11-26T07:43:16.464Z,6.09
2022-11-26T07:44:16.940Z,6.09
2022-11-26T07:45:16.431Z,6.12
2022-11-26T07:46:16.992Z,6.09
2022-11-26T07:47:16.743Z,6.09
2022-11-26T07:48:17.229Z,6.06
2022-11-26T07:49:16.748Z,6.06
2022-11-26T07:50:17.220Z,6.03
2022-11-26T07:51:16.706Z,6.05
2022-11-26T07:52:17.128Z,6.03
2022-11-26T07:53:16.649Z,6.03
2022-11-26T07:54:17.130Z,6.00
2022-11-26T07:55:16.599Z,6.03
2022-11-26T07:56:17.077Z,6.02
2022-11-26T07:57:16.551Z,6.03
2022-11-26T07:58:17.009Z,6.05
2022-11-26T07:59:16.464Z,6.08
2022-11-26T08:00:16.944Z,6.14
2022-11-26T08:01:16.456Z,6.14
2022-11-26T08:02:17.127Z,6.20
2022-11-26T08:03:16.785Z,6.23
2022-11-26T08:04:17.300Z,6.20
2022-11-26T08:05:16.777Z,6.23
2022-11-26T08:06:17.262Z,6.24
2022-11-26T08:07:23.155Z,6.24
2022-11-26T08:08:16.818Z,6.26
2022-11-26T08:09:16.401Z,6.27
2022-11-26T08:10:16.874Z,6.26
2022-11-26T08:11:16.362Z,6.24
2022-11-26T08:12:17.274Z,6.26
2022-11-26T08:13:16.725Z,6.29
2022-11-26T08:14:17.194Z,6.33
2022-11-26T08:15:16.655Z,6.34
2022-11-26T08:16:17.175Z,6.33
2022-11-26T08:17:16.825Z,6.36
2022-11-26T08:18:17.289Z,6.31
2022-11-26T08:19:16.757Z,6.34
2022-11-26T08:20:17.244Z,6.33
2022-11-26T08:21:16.724Z,6.36
2022-11-26T08:22:17.145Z,6.30
2022-11-26T08:23:16.665Z,6.33
2022-11-26T08:24:17.140Z,6.26
2022-11-26T08:25:16.650Z,6.26
2022-11-26T08:26:30.945Z,6.31
2022-11-26T08:27:17.238Z,6.34
2022-11-26T08:28:16.766Z,6.33
2022-11-26T08:29:17.276Z,6.30
2022-11-26T08:30:16.782Z,6.31
2022-11-26T08:31:17.344Z,6.34
2022-11-26T08:32:17.017Z,6.37
2022-11-26T08:33:16.518Z,6.40
2022-11-26T08:34:17.003Z,6.38
2022-11-26T08:35:16.529Z,6.44
2022-11-26T08:36:17.029Z,6.40
2022-11-26T08:37:16.558Z,6.37
2022-11-26T08:38:17.014Z,6.41
2022-11-26T08:39:16.497Z,6.43
2022-11-26T08:40:16.973Z,6.40
2022-11-26T08:41:16.461Z,6.37
2022-11-26T08:42:17.117Z,6.37
2022-11-26T08:43:16.598Z,6.45
2022-11-26T08:44:17.094Z,6.48
2022-11-26T08:45:16.569Z,6.38
2022-11-26T08:46:17.078Z,6.41
2022-11-26T08:47:16.667Z,6.44
2022-11-26T08:48:17.147Z,6.43
2022-11-26T08:49:16.642Z,6.47
2022-11-26T08:50:17.174Z,6.48
2022-11-26T08:51:16.673Z,6.40
2022-11-26T08:52:16.558Z,6.41
2022-11-26T08:53:17.039Z,6.47
2022-11-26T08:54:16.521Z,6.45
2022-11-26T08:55:17.010Z,6.47
2022-11-26T08:56:16.495Z,6.47
2022-11-26T08:57:16.973Z,6.45
2022-11-26T08:58:16.456Z,6.44
2022-11-26T08:59:16.932Z,6.45
2022-11-26T09:00:16.410Z,6.48
2022-11-26T09:01:16.936Z,6.52
2022-11-26T09:02:18.854Z,6.49
2022-11-26T09:03:16.641Z,6.47
2022-11-26T09:04:17.187Z,6.48
2022-11-26T09:05:16.662Z,6.47
2022-11-26T09:06:17.168Z,6.48
2022-11-26T09:07:16.702Z,6.45
2022-11-26T09:08:17.276Z,6.43
2022-11-26T09:09:16.745Z,6.45
2022-11-26T09:10:17.225Z,6.49
2022-11-26T09:11:16.687Z,6.48
2022-11-26T09:12:16.797Z,6.49
2022-11-26T09:13:20.865Z,6.51
2022-11-26T09:14:16.868Z,6.54
2022-11-26T09:15:16.404Z,6.51
2022-11-26T09:16:17.068Z,6.51
2022-11-26T09:17:16.680Z,6.54
2022-11-26T09:18:17.217Z,6.52
2022-11-26T09:19:16.715Z,6.51
2022-11-26T09:20:17.180Z,6.55
2022-11-26T09:21:16.674Z,6.58
2022-11-26T09:22:17.108Z,6.57
2022-11-26T09:23:16.659Z,6.54
2022-11-26T09:24:17.137Z,6.45
2022-11-26T09:25:16.643Z,6.47
2022-11-26T09:26:17.118Z,6.49
2022-11-26T09:27:16.605Z,6.52
2022-11-26T09:28:17.097Z,6.47
2022-11-26T09:29:16.590Z,6.43
2022-11-26T09:30:17.080Z,6.45
2022-11-26T09:31:16.661Z,6.44
2022-11-26T09:32:27.036Z,6.36
2022-11-26T09:33:16.504Z,6.38
2022-11-26T09:34:16.981Z,6.37
2022-11-26T09:35:16.444Z,6.38
2022-11-26T09:36:16.950Z,6.41
2022-11-26T09:37:16.478Z,6.45
2022-11-26T09:38:16.954Z,6.41
2022-11-26T09:39:16.429Z,6.43
2022-11-26T09:40:16.913Z,6.47
2022-11-26T09:41:16.387Z,6.43
2022-11-26T09:42:17.274Z,6.40
2022-11-26T09:43:16.757Z,6.38
2022-11-26T09:44:17.254Z,6.37
2022-11-26T09:45:16.757Z,6.41
2022-11-26T09:46:17.339Z,6.41
2022-11-26T09:47:17.111Z,6.37
2022-11-26T09:48:16.579Z,6.43
2022-11-26T09:49:17.061Z,6.43
2022-11-26T09:50:16.530Z,6.47
2022-11-26T09:51:17.013Z,6.44
2022-11-26T09:52:16.338Z,6.47
2022-11-26T09:53:16.808Z,6.44
2022-11-26T09:54:17.282Z,6.41
2022-11-26T09:55:16.768Z,6.36
2022-11-26T09:56:17.790Z,6.38
2022-11-26T09:57:17.312Z,6.38
2022-11-26T09:58:16.957Z,6.33
2022-11-26T09:59:16.998Z,6.37
2022-11-26T10:00:16.483Z,6.40
2022-11-26T10:01:17.038Z,6.38
2022-11-26T10:02:16.478Z,6.43
2022-11-26T10:03:17.082Z,6.41
2022-11-26T10:04:16.554Z,6.40
2022-11-26T10:05:19.893Z,6.41
2022-11-26T10:06:17.061Z,6.41
2022-11-26T10:07:16.603Z,6.44
2022-11-26T10:08:17.193Z,6.49
2022-11-26T10:09:16.662Z,6.47
2022-11-26T10:10:17.172Z,6.51
2022-11-26T10:11:16.662Z,6.45
2022-11-26T10:12:25.337Z,6.51
2022-11-26T10:13:19.627Z,6.54
2022-11-26T10:14:16.590Z,6.48
2022-11-26T10:15:17.068Z,6.43
2022-11-26T10:16:16.602Z,6.45
2022-11-26T10:17:17.157Z,6.48
2022-11-26T10:18:16.623Z,6.52
2022-11-26T10:19:17.122Z,6.49
2022-11-26T10:20:16.583Z,6.52
2022-11-26T10:21:26.813Z,6.49
2022-11-26T10:22:16.897Z,6.51
2022-11-26T10:23:16.368Z,6.47
2022-11-26T10:24:16.841Z,6.49
2022-11-26T10:25:16.299Z,6.47
2022-11-26T10:26:16.765Z,6.48
2022-11-26T10:27:17.240Z,6.49
2022-11-26T10:28:16.722Z,6.47
2022-11-26T10:29:17.173Z,6.51
2022-11-26T10:30:16.657Z,6.51
2022-11-26T10:31:17.200Z,6.47
2022-11-26T10:32:16.522Z,6.43
2022-11-26T10:33:17.033Z,6.43
2022-11-26T10:34:16.489Z,6.43
2022-11-26T10:35:16.961Z,6.43
2022-11-26T10:36:16.461Z,6.45
2022-11-26T10:37:16.961Z,6.45
2022-11-26T10:38:16.448Z,6.47
2022-11-26T10:39:16.922Z,6.45
2022-11-26T10:40:16.397Z,6.47
2022-11-26T10:41:16.889Z,6.43
2022-11-26T10:42:16.566Z,6.45
2022-11-26T10:43:17.062Z,6.44
2022-11-26T10:44:16.518Z,6.44
2022-11-26T10:45:17.009Z,6.44
2022-11-26T10:46:16.493Z,6.49
2022-11-26T10:47:17.063Z,6.45
2022-11-26T10:48:16.859Z,6.48
2022-11-26T10:49:16.336Z,6.47
2022-11-26T10:50:39.988Z,6.55
2022-11-26T10:51:16.395Z,6.55
2022-11-26T10:52:16.938Z,6.64
2022-11-26T10:53:16.428Z,6.65
2022-11-26T10:54:16.906Z,6.71
2022-11-26T10:55:16.418Z,6.75
2022-11-26T10:56:16.924Z,6.68
2022-11-26T10:57:16.403Z,6.64
2022-11-26T10:58:16.896Z,6.69
2022-11-26T10:59:16.412Z,6.69
2022-11-26T11:00:16.941Z,6.72
2022-11-26T11:01:16.456Z,6.72
2022-11-26T11:02:16.581Z,6.69
2022-11-26T11:03:17.218Z,6.71
2022-11-26T11:04:16.689Z,6.75
2022-11-26T11:05:17.175Z,6.75
2022-11-26T11:06:16.710Z,6.69
2022-11-26T11:07:17.246Z,6.74
2022-11-26T11:08:16.794Z,6.75
2022-11-26T11:09:17.297Z,6.75
2022-11-26T11:10:16.808Z,6.75
2022-11-26T11:11:17.296Z,6.74
2022-11-26T11:12:17.246Z,6.72
2022-11-26T11:13:16.776Z,6.71
2022-11-26T11:14:17.234Z,6.72
2022-11-26T11:15:16.752Z,6.79
2022-11-26T11:16:17.297Z,6.81
2022-11-26T11:17:16.938Z,6.81
2022-11-26T11:18:16.419Z,6.79
2022-11-26T11:19:16.905Z,6.81
2022-11-26T11:20:16.415Z,6.78
2022-11-26T11:21:16.937Z,6.81
2022-11-26T11:22:16.805Z,6.92
2022-11-26T11:23:16.580Z,6.84
2022-11-26T11:24:17.096Z,6.78
2022-11-26T11:25:16.559Z,6.72
2022-11-26T11:26:17.026Z,6.72
2022-11-26T11:27:16.498Z,6.72
2022-11-26T11:28:16.985Z,6.71
2022-11-26T11:29:16.451Z,6.71
2022-11-26T11:30:16.970Z,6.76
2022-11-26T11:31:16.537Z,6.76
2022-11-26T11:32:16.605Z,6.81
2022-11-26T11:33:17.084Z,6.81
2022-11-26T11:34:16.598Z,6.81
2022-11-26T11:35:17.085Z,6.82
2022-11-26T11:36:16.573Z,6.81
2022-11-26T11:37:17.048Z,6.81
2022-11-26T11:38:16.533Z,6.88
2022-11-26T11:39:17.050Z,6.86
2022-11-26T11:40:17.425Z,6.88
2022-11-26T11:41:17.013Z,6.89
2022-11-26T11:42:16.467Z,6.92
2022-11-26T11:43:16.938Z,6.84
2022-11-26T11:44:16.402Z,6.85
2022-11-26T11:45:17.036Z,6.91
2022-11-26T11:46:16.526Z,6.99
2022-11-26T11:47:17.063Z,6.82
2022-11-26T11:48:16.552Z,6.86
2022-11-26T11:49:17.107Z,6.89
2022-11-26T11:50:16.647Z,6.92
2022-11-26T11:51:17.310Z,6.94
2022-11-26T11:52:16.399Z,6.92
2022-11-26T11:53:16.873Z,6.94
2022-11-26T11:54:16.331Z,6.89
2022-11-26T11:55:16.819Z,6.84
2022-11-26T11:56:17.272Z,6.92
2022-11-26T11:57:16.782Z,6.88
2022-11-26T11:58:17.275Z,6.86
2022-11-26T11:59:16.780Z,6.88
2022-11-26T12:00:17.282Z,6.95
2022-11-26T12:01:16.807Z,6.92
2022-11-26T12:02:16.853Z,6.91
2022-11-26T12:03:16.528Z,6.96
2022-11-26T12:04:19.491Z,6.99
2022-11-26T12:05:16.550Z,7.03
2022-11-26T12:06:17.027Z,6.98
2022-11-26T12:07:16.529Z,6.98
2022-11-26T12:08:17.175Z,7.05
2022-11-26T12:09:16.685Z,6.98
2022-11-26T12:10:17.198Z,6.99
2022-11-26T12:11:16.696Z,7.00
2022-11-26T12:12:16.569Z,7.00
2022-11-26T12:13:17.073Z,6.88
2022-11-26T12:14:16.552Z,6.84
2022-11-26T12:15:17.038Z,6.96
2022-11-26T12:16:16.571Z,6.92
2022-11-26T12:17:17.125Z,6.84
2022-11-26T12:18:16.639Z,6.84
2022-11-26T12:19:17.108Z,6.76
2022-11-26T12:20:16.594Z,6.84
2022-11-26T12:21:17.058Z,6.82
2022-11-26T12:22:16.737Z,6.78
2022-11-26T12:23:21.329Z,6.71
2022-11-26T12:24:17.118Z,6.75
2022-11-26T12:25:16.581Z,6.81
2022-11-26T12:26:17.078Z,6.84
2022-11-26T12:27:16.695Z,6.85
2022-11-26T12:28:17.220Z,6.75
2022-11-26T12:29:16.746Z,6.68
2022-11-26T12:30:17.331Z,6.67
2022-11-26T12:31:17.015Z,6.67
2022-11-26T12:32:17.204Z,6.63
2022-11-26T12:33:16.681Z,6.68
2022-11-26T12:34:17.148Z,6.71
2022-11-26T12:35:16.653Z,6.69
2022-11-26T12:36:17.182Z,6.72
2022-11-26T12:37:16.644Z,6.68
2022-11-26T12:38:17.098Z,6.64
2022-11-26T12:39:16.572Z,6.64
2022-11-26T12:40:17.048Z,6.67
2022-11-26T12:41:16.512Z,6.68
2022-11-26T12:42:17.094Z,6.68
2022-11-26T12:43:16.636Z,6.69
2022-11-26T12:44:17.110Z,6.67
2022-11-26T12:45:17.694Z,6.64
2022-11-26T12:46:17.354Z,6.72
2022-11-26T12:47:16.970Z,6.65
2022-11-26T12:48:16.430Z,6.69
2022-11-26T12:49:16.895Z,6.71
2022-11-26T12:50:16.356Z,6.64
2022-11-26T12:51:16.857Z,6.68
2022-11-26T12:52:16.899Z,6.69
2022-11-26T12:53:16.376Z,6.61
2022-11-26T12:54:16.866Z,6.64
2022-11-26T12:55:16.363Z,6.63
2022-11-26T12:56:16.847Z,6.63
2022-11-26T12:57:16.354Z,6.64
2022-11-26T12:58:16.889Z,6.57
2022-11-26T12:59:16.373Z,6.54
2022-11-26T13:00:18.889Z,6.57
2022-11-26T13:01:17.126Z,6.63
2022-11-26T13:02:16.819Z,6.63
2022-11-26T13:03:16.448Z,6.58
2022-11-26T13:04:37.046Z,6.58
2022-11-26T13:05:16.338Z,6.63
2022-11-26T13:06:16.813Z,6.61
2022-11-26T13:07:16.526Z,6.64
2022-11-26T13:08:17.071Z,6.63
2022-11-26T13:09:16.562Z,6.63
2022-11-26T13:10:17.054Z,6.65
2022-11-26T13:11:16.526Z,6.64
2022-11-26T13:12:17.190Z,6.59
2022-11-26T13:13:16.676Z,6.64
2022-11-26T13:14:17.176Z,6.69
2022-11-26T13:15:16.646Z,6.69
2022-11-26T13:16:17.161Z,6.71
2022-11-26T13:17:16.719Z,6.71
2022-11-26T13:18:17.194Z,6.68